createdAt,value
2023-06-17T00:01:49.763Z,4.93
2023-06-17T00:04:17.829Z,6.00
2023-06-17T00:06:47.178Z,9.85
2023-06-17T00:09:15.250Z,6.55
2023-06-17T00:11:43.345Z,8.30
2023-06-17T00:14:11.885Z,6.10
2023-06-17T00:16:45.030Z,5.65
2023-06-17T00:19:17.227Z,7.60
2023-06-17T00:21:45.419Z,6.07
2023-06-17T00:24:14.837Z,8.18
2023-06-17T00:26:43.073Z,6.28
2023-06-17T00:29:11.858Z,9.10
2023-06-17T00:31:40.032Z,5.95
2023-06-17T00:34:08.260Z,6.00
2023-06-17T00:36:36.396Z,6.60
2023-06-17T00:39:04.841Z,10.40
2023-06-17T00:41:34.308Z,5.95
2023-06-17T00:44:03.024Z,6.93
2023-06-17T00:46:39.040Z,4.90
2023-06-17T00:49:10.195Z,6.60
2023-06-17T00:51:39.938Z,9.25
2023-06-17T00:54:09.970Z,6.50
2023-06-17T00:56:41.409Z,7.68
2023-06-17T00:59:10.438Z,6.20
2023-06-17T01:01:38.569Z,7.82
2023-06-17T01:04:07.899Z,9.25
2023-06-17T01:06:45.226Z,9.50
2023-06-17T01:09:18.244Z,6.22
2023-06-17T01:11:49.767Z,5.20
2023-06-17T01:14:21.803Z,6.30
2023-06-17T01:16:54.601Z,6.53
2023-06-17T01:19:25.931Z,8.32
2023-06-17T01:21:58.966Z,5.95
2023-06-17T01:24:31.282Z,8.93
2023-06-17T01:27:01.299Z,7.03
2023-06-17T01:29:30.789Z,5.70
2023-06-17T01:32:00.159Z,10.43
2023-06-17T01:34:36.420Z,6.10
2023-06-17T01:37:07.493Z,6.10
2023-06-17T01:39:38.915Z,7.50
2023-06-17T01:42:12.308Z,8.68
2023-06-17T01:44:41.627Z,7.85
2023-06-17T01:47:10.879Z,5.18
2023-06-17T01:49:39.488Z,7.28
2023-06-17T01:52:10.642Z,5.80
2023-06-17T01:54:40.476Z,6.85
2023-06-17T01:57:09.988Z,7.10
2023-06-17T01:59:38.092Z,7.82
2023-06-17T02:02:06.544Z,5.65
2023-06-17T02:04:34.659Z,9.52
2023-06-17T02:07:02.918Z,8.07
2023-06-17T02:09:31.177Z,10.00
2023-06-17T02:12:00.639Z,7.75
2023-06-17T02:14:30.283Z,6.85
2023-06-17T02:16:58.441Z,5.40
2023-06-17T02:19:30.062Z,8.93
2023-06-17T02:21:58.364Z,5.13
2023-06-17T02:24:26.617Z,9.27
2023-06-17T02:26:54.778Z,5.30
2023-06-17T02:29:24.534Z,6.80
2023-06-17T02:31:53.106Z,6.95
2023-06-17T02:34:21.426Z,6.10
2023-06-17T02:36:50.867Z,5.30
2023-06-17T02:39:19.101Z,5.82
2023-06-17T02:41:47.167Z,8.60
2023-06-17T02:44:15.343Z,5.47
2023-06-17T02:46:44.842Z,9.73
2023-06-17T02:49:14.452Z,5.60
2023-06-17T02:51:43.157Z,8.75
2023-06-17T02:54:12.109Z,8.10
2023-06-17T02:56:40.518Z,7.35
2023-06-17T02:59:09.701Z,5.97
2023-06-17T03:01:40.378Z,5.40
2023-06-17T03:04:10.715Z,5.25
2023-06-17T03:06:42.139Z,5.20
2023-06-17T03:09:12.253Z,5.32
2023-06-17T03:11:41.282Z,6.97
2023-06-17T03:14:09.696Z,5.80
2023-06-17T03:16:41.745Z,4.82
2023-06-17T03:19:11.786Z,6.03
2023-06-17T03:21:42.229Z,7.63
2023-06-17T03:24:11.498Z,8.45
2023-06-17T03:26:39.983Z,5.95
2023-06-17T03:29:08.058Z,6.32
2023-06-17T03:31:36.376Z,5.15
2023-06-17T03:34:04.780Z,6.88
2023-06-17T03:36:34.981Z,7.10
2023-06-17T03:39:03.316Z,6.63
2023-06-17T03:41:34.561Z,8.20
2023-06-17T03:44:03.318Z,7.15
2023-06-17T03:46:31.456Z,8.32
2023-06-17T03:49:01.010Z,9.70
2023-06-17T03:51:29.039Z,6.95
2023-06-17T03:53:59.409Z,11.00
2023-06-17T03:56:28.494Z,8.18
2023-06-17T03:58:56.663Z,7.95
2023-06-17T04:01:24.751Z,7.97
2023-06-17T04:03:53.288Z,8.68
2023-06-17T04:06:21.511Z,7.80
2023-06-17T04:08:49.624Z,8.15
2023-06-17T04:11:19.103Z,7.10
2023-06-17T04:13:47.352Z,7.63
2023-06-17T04:16:16.366Z,9.95
2023-06-17T04:18:44.591Z,8.43
2023-06-17T04:21:13.085Z,9.50
2023-06-17T04:23:41.598Z,7.82
2023-06-17T04:26:14.274Z,9.15
2023-06-17T04:28:44.512Z,6.90
2023-06-17T04:31:12.993Z,9.32
2023-06-17T04:33:42.860Z,10.02
2023-06-17T04:36:12.076Z,8.77
2023-06-17T04:38:42.862Z,9.15
2023-06-17T04:41:11.330Z,8.70
2023-06-17T04:43:39.415Z,7.30
2023-06-17T04:46:11.736Z,9.68
2023-06-17T04:48:40.674Z,8.75
2023-06-17T04:51:09.500Z,8.60
2023-06-17T04:53:40.030Z,8.32
2023-06-17T04:56:08.770Z,9.80
2023-06-17T04:58:37.911Z,8.43
2023-06-17T05:01:12.499Z,9.95
2023-06-17T05:03:41.641Z,9.10
2023-06-17T05:06:10.209Z,8.65
2023-06-17T05:08:38.360Z,8.18
2023-06-17T05:11:07.507Z,11.70
2023-06-17T05:13:40.182Z,10.65
2023-06-17T05:16:08.402Z,10.15
2023-06-17T05:18:41.106Z,8.05
2023-06-17T05:21:09.261Z,9.00
2023-06-17T05:23:37.920Z,8.38
2023-06-17T05:26:07.402Z,9.43
2023-06-17T05:28:35.561Z,13.20
2023-06-17T05:31:04.012Z,7.30
2023-06-17T05:33:32.260Z,8.07
2023-06-17T05:36:01.795Z,10.30
2023-06-17T05:38:31.277Z,7.72
2023-06-17T05:40:59.426Z,7.80
2023-06-17T05:43:29.080Z,11.68
2023-06-17T05:45:58.667Z,8.70
2023-06-17T05:48:26.964Z,8.98
2023-06-17T05:50:55.427Z,7.68
2023-06-17T05:53:24.780Z,7.28
2023-06-17T05:55:53.649Z,11.20
2023-06-17T05:58:21.865Z,7.78
2023-06-17T06:00:55.643Z,6.72
2023-06-17T06:03:23.836Z,9.82
2023-06-17T06:05:52.041Z,9.48
2023-06-17T06:08:21.116Z,12.63
2023-06-17T06:10:50.668Z,9.20
2023-06-17T06:13:18.854Z,7.57
2023-06-17T06:15:47.628Z,13.60
2023-06-17T06:18:15.906Z,7.30
2023-06-17T06:20:44.221Z,6.40
2023-06-17T06:23:12.538Z,9.55
2023-06-17T06:25:40.998Z,10.52
2023-06-17T06:28:10.707Z,8.10
2023-06-17T06:30:38.790Z,9.10
2023-06-17T06:33:07.010Z,7.63
2023-06-17T06:35:35.097Z,7.30
2023-06-17T06:38:04.459Z,12.55
2023-06-17T06:40:33.844Z,11.48
2023-06-17T06:43:03.156Z,8.55
2023-06-17T06:45:42.618Z,7.60
2023-06-17T06:48:11.038Z,8.55
2023-06-17T06:50:39.229Z,12.00
2023-06-17T06:53:09.134Z,9.40
2023-06-17T06:55:37.193Z,12.43
2023-06-17T06:58:06.104Z,9.88
2023-06-17T07:00:34.277Z,10.93
2023-06-17T07:03:03.838Z,7.22
2023-06-17T07:05:32.049Z,8.90
2023-06-17T07:08:03.453Z,7.93
2023-06-17T07:10:31.784Z,7.25
2023-06-17T07:12:59.950Z,5.68
2023-06-17T07:15:28.259Z,6.47
2023-06-17T07:17:56.417Z,8.30
2023-06-17T07:20:26.039Z,10.50
2023-06-17T07:22:55.432Z,7.90
2023-06-17T07:25:23.548Z,8.25
2023-06-17T07:27:52.191Z,5.28
2023-06-17T07:30:20.760Z,5.82
2023-06-17T07:32:49.191Z,5.53
2023-06-17T07:35:17.360Z,7.07
2023-06-17T07:37:46.979Z,5.63
2023-06-17T07:40:15.217Z,9.48
2023-06-17T07:42:43.908Z,6.80
2023-06-17T07:45:12.988Z,6.10
2023-06-17T07:47:41.182Z,11.82
2023-06-17T07:50:11.269Z,16.98
2023-06-17T07:52:39.718Z,8.23
2023-06-17T07:55:10.184Z,6.03
2023-06-17T07:57:38.564Z,10.77
2023-06-17T08:00:10.671Z,10.63
2023-06-17T08:02:41.676Z,5.22
2023-06-17T08:05:10.738Z,5.75
2023-06-17T08:07:38.816Z,6.53
2023-06-17T08:10:10.533Z,8.52
2023-06-17T08:12:38.985Z,6.70
2023-06-17T08:15:09.131Z,12.63
2023-06-17T08:17:37.551Z,7.75
2023-06-17T08:20:06.529Z,12.23
2023-06-17T08:22:34.647Z,8.60
2023-06-17T08:25:02.858Z,8.73
2023-06-17T08:27:32.506Z,11.40
2023-06-17T08:30:00.816Z,13.77
2023-06-17T08:32:29.076Z,8.95
2023-06-17T08:34:57.270Z,9.77
2023-06-17T08:37:25.357Z,13.05
2023-06-17T08:39:53.441Z,7.13
2023-06-17T08:42:21.497Z,8.45
2023-06-17T08:44:52.360Z,12.20
2023-06-17T08:47:20.652Z,11.85
2023-06-17T08:49:48.747Z,11.05
2023-06-17T08:52:17.393Z,13.73
2023-06-17T08:54:46.702Z,14.27
2023-06-17T08:57:15.095Z,12.18
2023-06-17T08:59:43.521Z,10.77
2023-06-17T09:02:13.557Z,8.95
2023-06-17T09:04:42.710Z,11.10
2023-06-17T09:07:11.529Z,8.95
2023-06-17T09:09:39.972Z,14.73
2023-06-17T09:12:09.614Z,10.93
2023-06-17T09:14:38.253Z,9.02
2023-06-17T09:17:06.488Z,9.40
2023-06-17T09:19:41.232Z,9.18
2023-06-17T09:22:09.585Z,10.15
2023-06-17T09:24:44.246Z,9.93
2023-06-17T09:27:22.436Z,9.93
2023-06-17T09:30:07.743Z,11.70
2023-06-17T09:32:40.686Z,11.07
2023-06-17T09:35:15.646Z,8.15
2023-06-17T09:37:54.190Z,18.52
2023-06-17T09:40:30.712Z,9.35
2023-06-17T09:43:16.327Z,9.32
2023-06-17T09:45:46.023Z,9.40
2023-06-17T09:48:20.935Z,9.05
2023-06-17T09:50:56.938Z,10.23
2023-06-17T09:53:27.284Z,9.32
2023-06-17T09:55:58.133Z,11.20
2023-06-17T09:58:30.238Z,12.35
2023-06-17T10:00:59.522Z,8.80
2023-06-17T10:03:27.818Z,16.13
2023-06-17T10:06:02.339Z,7.95
2023-06-17T10:08:32.743Z,12.00
2023-06-17T10:11:02.261Z,9.75
2023-06-17T10:13:51.411Z,10.77
2023-06-17T10:16:24.456Z,8.68
2023-06-17T10:18:56.228Z,11.32
2023-06-17T10:21:44.956Z,12.40
2023-06-17T10:24:27.308Z,11.20
2023-06-17T10:27:27.415Z,6.97
2023-06-17T10:29:59.194Z,9.57
2023-06-17T10:32:27.522Z,11.75
2023-06-17T10:35:13.816Z,7.60
2023-06-17T10:37:45.182Z,7.47
2023-06-17T10:40:27.418Z,8.02
2023-06-17T10:43:04.240Z,6.88
2023-06-17T10:45:33.661Z,6.57
2023-06-17T10:48:17.887Z,18.48
2023-06-17T10:50:50.778Z,10.30
2023-06-17T10:53:27.423Z,9.43
2023-06-17T10:55:55.500Z,9.93
2023-06-17T10:58:23.479Z,11.23
2023-06-17T11:01:04.989Z,8.65
2023-06-17T11:03:33.618Z,9.82
2023-06-17T11:06:03.243Z,10.40
2023-06-17T11:08:34.099Z,9.18
2023-06-17T11:11:12.322Z,10.45
2023-06-17T11:13:42.027Z,11.02
2023-06-17T11:16:11.084Z,10.82
2023-06-17T11:18:40.267Z,8.98
2023-06-17T11:21:09.104Z,7.53
2023-06-17T11:23:39.999Z,11.10
2023-06-17T11:26:09.093Z,10.75
2023-06-17T11:28:37.716Z,11.30
2023-06-17T11:31:08.555Z,8.38
2023-06-17T11:33:40.082Z,8.88
2023-06-17T11:36:11.046Z,10.30
2023-06-17T11:38:40.684Z,6.85
2023-06-17T11:41:08.788Z,9.48
2023-06-17T11:43:38.145Z,6.93
2023-06-17T11:46:06.804Z,6.15
2023-06-17T11:48:36.248Z,9.02
2023-06-17T11:51:04.949Z,8.30
2023-06-17T11:53:37.065Z,6.25
2023-06-17T11:56:08.197Z,6.70
2023-06-17T11:58:38.847Z,7.15
2023-06-17T12:01:07.655Z,12.95
2023-06-17T12:03:36.160Z,9.25
2023-06-17T12:06:04.746Z,8.52
2023-06-17T12:08:34.603Z,6.55
2023-06-17T12:11:08.200Z,9.52
2023-06-17T12:13:40.582Z,6.13
2023-06-17T12:16:11.732Z,7.60
2023-06-17T12:18:39.799Z,7.13
2023-06-17T12:21:11.974Z,9.40
2023-06-17T12:23:40.057Z,4.97
2023-06-17T12:26:09.904Z,9.05
2023-06-17T12:28:37.947Z,6.40
2023-06-17T12:31:06.034Z,7.50
2023-06-17T12:33:34.161Z,6.28
2023-06-17T12:36:02.387Z,7.85
2023-06-17T12:38:32.162Z,6.93
2023-06-17T12:41:01.082Z,7.20
2023-06-17T12:43:30.649Z,7.22
2023-06-17T12:46:00.051Z,7.22
2023-06-17T12:48:28.681Z,8.50
2023-06-17T12:50:56.952Z,6.28
2023-06-17T12:53:25.295Z,10.80
2023-06-17T12:55:53.663Z,7.78
2023-06-17T12:58:21.707Z,7.93
2023-06-17T13:00:51.253Z,9.60
2023-06-17T13:03:20.080Z,8.20
2023-06-17T13:08:40.363Z,8.25
2023-06-17T13:11:08.525Z,4.13
2023-06-17T13:13:36.567Z,8.73
2023-06-17T13:16:06.410Z,4.60
2023-06-17T13:18:34.495Z,5.55
2023-06-17T13:21:02.611Z,7.38
2023-06-17T13:23:31.040Z,5.97
2023-06-17T13:25:59.123Z,7.25
2023-06-17T13:28:27.434Z,9.73
2023-06-17T13:31:03.021Z,6.57
2023-06-17T13:33:32.631Z,8.93
2023-06-17T13:36:00.774Z,7.55
2023-06-17T13:38:28.907Z,5.75
2023-06-17T13:40:57.002Z,5.25
2023-06-17T13:43:25.113Z,5.57
2023-06-17T13:45:53.298Z,8.32
2023-06-17T13:48:21.634Z,6.43
2023-06-17T13:50:51.207Z,6.65
2023-06-17T13:53:19.406Z,9.35
2023-06-17T13:55:47.776Z,7.25
2023-06-17T13:58:15.940Z,5.15
2023-06-17T14:00:44.093Z,7.50
2023-06-17T14:03:15.260Z,10.20
2023-06-17T14:05:44.640Z,7.38
2023-06-17T14:08:24.117Z,5.88
2023-06-17T14:10:52.569Z,4.20
2023-06-17T14:13:20.656Z,4.95
2023-06-17T14:15:48.834Z,7.80
2023-06-17T14:18:16.888Z,4.82
2023-06-17T14:20:44.924Z,5.63
2023-06-17T14:23:13.034Z,4.20
2023-06-17T14:25:42.474Z,6.72
2023-06-17T14:28:10.545Z,5.43
2023-06-17T14:30:39.802Z,6.13
2023-06-17T14:33:08.898Z,6.78
2023-06-17T14:35:36.955Z,7.93
2023-06-17T14:38:06.038Z,10.52
2023-06-17T14:40:34.328Z,5.03
2023-06-17T14:43:05.216Z,7.15
2023-06-17T14:45:33.376Z,5.90
2023-06-17T14:48:01.619Z,4.40
2023-06-17T14:50:29.770Z,5.53
2023-06-17T14:52:57.809Z,6.63
2023-06-17T14:55:26.156Z,7.97
2023-06-17T14:57:54.250Z,4.50
2023-06-17T15:00:23.965Z,5.47
2023-06-17T15:02:59.409Z,7.00
2023-06-17T15:05:28.718Z,6.45
2023-06-17T15:07:56.954Z,6.10
2023-06-17T15:10:25.305Z,8.15
2023-06-17T15:12:53.446Z,9.18
2023-06-17T15:15:23.247Z,7.28
2023-06-17T15:17:52.327Z,5.50
2023-06-17T15:20:21.189Z,7.03
2023-06-17T15:22:49.475Z,7.60
2023-06-17T15:25:17.660Z,5.63
2023-06-17T15:27:45.711Z,9.82
2023-06-17T15:30:14.370Z,9.15
2023-06-17T15:32:43.958Z,5.70
2023-06-17T15:35:12.027Z,5.03
2023-06-17T15:37:40.263Z,6.20
2023-06-17T15:40:09.906Z,5.50
2023-06-17T15:42:38.086Z,8.40
2023-06-17T15:45:07.532Z,6.78
2023-06-17T15:47:35.842Z,8.35
2023-06-17T15:50:05.935Z,8.13
2023-06-17T15:52:34.069Z,7.35
2023-06-17T15:55:02.675Z,6.45
2023-06-17T15:57:30.823Z,6.47
2023-06-17T15:59:59.052Z,8.70
2023-06-17T16:02:27.919Z,9.98
2023-06-17T16:04:56.148Z,7.65
2023-06-17T16:07:25.695Z,6.47
2023-06-17T16:09:54.035Z,5.50
2023-06-17T16:12:23.243Z,5.40
2023-06-17T16:14:51.299Z,7.10
2023-06-17T16:17:19.779Z,6.25
2023-06-17T16:19:47.910Z,5.43
2023-06-17T16:22:15.994Z,21.08
2023-06-17T16:24:45.490Z,6.20
2023-06-17T16:27:13.676Z,10.00
2023-06-17T16:29:41.815Z,10.85
2023-06-17T16:32:11.183Z,11.05
2023-06-17T16:34:39.661Z,7.97
2023-06-17T16:37:07.787Z,7.20
2023-06-17T16:39:36.571Z,6.15
2023-06-17T16:42:07.621Z,7.57
2023-06-17T16:44:36.317Z,6.40
2023-06-17T16:47:04.585Z,7.60
2023-06-17T16:49:32.801Z,6.60
2023-06-17T16:52:00.886Z,5.90
2023-06-17T16:54:28.995Z,5.45
2023-06-17T16:56:57.332Z,9.57
2023-06-17T16:59:26.937Z,5.78
2023-06-17T17:01:56.388Z,5.15
2023-06-17T17:04:24.688Z,10.73
2023-06-17T17:06:52.736Z,6.53
2023-06-17T17:09:20.900Z,5.78
2023-06-17T17:11:48.991Z,5.47
2023-06-17T17:14:17.037Z,6.82
2023-06-17T17:16:46.839Z,7.50
2023-06-17T17:19:15.093Z,6.50
2023-06-17T17:21:43.230Z,5.85
2023-06-17T17:24:11.535Z,4.47
2023-06-17T17:26:39.631Z,4.40
2023-06-17T17:29:07.748Z,6.25
2023-06-17T17:31:35.919Z,4.15
2023-06-17T17:34:05.291Z,4.43
2023-06-17T17:36:33.354Z,6.38
2023-06-17T17:39:01.472Z,9.13
2023-06-17T17:41:29.789Z,5.55
2023-06-17T17:43:57.954Z,10.82
2023-06-17T17:46:26.174Z,8.02
2023-06-17T17:48:54.349Z,7.55
2023-06-17T17:51:23.841Z,5.95
2023-06-17T17:53:51.924Z,5.53
2023-06-17T17:56:19.975Z,5.05
2023-06-17T17:58:48.058Z,7.97
2023-06-17T18:01:16.987Z,6.32
2023-06-17T18:03:45.264Z,7.55
2023-06-17T18:06:13.372Z,7.75
2023-06-17T18:08:42.757Z,5.75
2023-06-17T18:11:10.865Z,9.23
2023-06-17T18:13:39.109Z,5.78
2023-06-17T18:16:07.700Z,4.18
2023-06-17T18:18:35.912Z,9.20
2023-06-17T18:21:04.134Z,7.93
2023-06-17T18:23:32.271Z,5.45
2023-06-17T18:26:01.813Z,8.23
2023-06-17T18:28:29.803Z,7.40
2023-06-17T18:30:57.844Z,11.95
2023-06-17T18:33:25.955Z,7.18
2023-06-17T18:35:54.001Z,8.65
2023-06-17T18:38:22.046Z,11.55
2023-06-17T18:40:50.622Z,7.85
2023-06-17T18:43:21.745Z,8.13
2023-06-17T18:45:52.731Z,7.82
2023-06-17T18:48:21.273Z,10.02
2023-06-17T18:50:49.385Z,12.70
2023-06-17T18:53:17.540Z,6.53
2023-06-17T18:55:45.759Z,9.68
2023-06-17T18:58:13.864Z,6.10
2023-06-17T19:00:43.350Z,9.38
2023-06-17T19:03:11.516Z,9.30
2023-06-17T19:05:40.671Z,14.50
2023-06-17T19:08:08.903Z,7.63
2023-06-17T19:10:36.928Z,14.43
2023-06-17T19:13:04.951Z,14.88
2023-06-17T19:15:34.209Z,20.17
2023-06-17T19:18:03.930Z,22.40
2023-06-17T19:20:32.072Z,17.27
2023-06-17T19:23:00.221Z,21.40
2023-06-17T19:25:28.390Z,22.17
2023-06-17T19:27:56.521Z,19.73
2023-06-17T19:30:24.834Z,23.23
2023-06-17T19:32:53.139Z,42.38
2023-06-17T19:35:22.551Z,23.42
2023-06-17T19:37:50.658Z,19.55
2023-06-17T19:40:18.916Z,13.57
2023-06-17T19:42:47.129Z,18.50
2023-06-17T19:45:15.682Z,24.85
2023-06-17T19:47:44.005Z,24.73
2023-06-17T19:50:12.877Z,20.10
2023-06-17T19:52:42.237Z,15.00
2023-06-17T19:55:11.478Z,19.40
2023-06-17T19:57:39.504Z,18.00
2023-06-17T20:00:08.840Z,16.25
2023-06-17T20:02:43.060Z,13.70
2023-06-17T20:05:12.477Z,18.25
2023-06-17T20:07:41.991Z,17.95
2023-06-17T20:10:10.847Z,23.00
2023-06-17T20:12:38.901Z,14.73
2023-06-17T20:15:08.124Z,17.83
2023-06-17T20:17:36.361Z,24.48
2023-06-17T20:20:04.719Z,11.82
2023-06-17T20:22:32.923Z,12.00
2023-06-17T20:25:02.383Z,16.40
2023-06-17T20:27:30.450Z,19.02
2023-06-17T20:29:58.456Z,22.55
2023-06-17T20:32:26.617Z,12.75
2023-06-17T20:34:54.729Z,14.60
2023-06-17T20:37:22.890Z,17.77
2023-06-17T20:39:51.009Z,15.10
2023-06-17T20:42:20.591Z,14.43
2023-06-17T20:44:50.542Z,14.65
2023-06-17T20:47:18.778Z,15.55
2023-06-17T20:49:49.619Z,24.92
2023-06-17T20:52:18.299Z,22.30
2023-06-17T20:54:46.487Z,15.25
2023-06-17T20:57:14.543Z,12.32
2023-06-17T20:59:44.425Z,18.52
2023-06-17T21:02:15.095Z,16.52
2023-06-17T21:04:44.288Z,13.35
2023-06-17T21:07:12.247Z,14.57
2023-06-17T21:09:40.867Z,10.85
2023-06-17T21:12:09.320Z,13.30
2023-06-17T21:14:37.520Z,14.98
2023-06-17T21:17:07.254Z,8.82
2023-06-17T21:19:35.664Z,18.63
2023-06-17T21:22:07.069Z,14.40
2023-06-17T21:24:35.331Z,9.90
2023-06-17T21:27:10.117Z,11.32
2023-06-17T21:29:38.627Z,11.52
2023-06-17T21:32:10.412Z,9.57
2023-06-17T21:34:38.543Z,8.60
2023-06-17T21:37:06.634Z,11.65
2023-06-17T21:39:34.796Z,12.30
2023-06-17T21:42:02.944Z,10.35
2023-06-17T21:44:32.672Z,14.52
2023-06-17T21:47:02.362Z,11.88
2023-06-17T21:49:31.768Z,11.32
2023-06-17T21:52:00.028Z,16.98
2023-06-17T21:54:28.203Z,14.40
2023-06-17T21:56:56.188Z,14.35
2023-06-17T21:59:29.015Z,12.77
2023-06-17T22:01:57.365Z,19.13
2023-06-17T22:04:25.454Z,13.02
2023-06-17T22:06:56.919Z,12.80
2023-06-17T22:09:25.089Z,12.73
2023-06-17T22:11:53.291Z,13.43
2023-06-17T22:14:21.367Z,12.10
2023-06-17T22:16:49.340Z,14.00
2023-06-17T22:19:17.531Z,11.63
2023-06-17T22:21:45.712Z,11.95
2023-06-17T22:24:15.343Z,11.25
2023-06-17T22:26:43.583Z,11.85
2023-06-17T22:29:11.740Z,12.15
2023-06-17T22:31:39.822Z,13.68
2023-06-17T22:34:07.857Z,10.20
2023-06-17T22:36:35.871Z,11.25
2023-06-17T22:39:03.997Z,12.63
2023-06-17T22:41:33.488Z,15.10
2023-06-17T22:44:01.586Z,10.27
2023-06-17T22:46:29.638Z,13.02
2023-06-17T22:48:57.784Z,16.10
2023-06-17T22:51:26.883Z,11.57
2023-06-17T22:53:54.956Z,10.02
2023-06-17T22:56:22.997Z,9.10
2023-06-17T22:58:52.424Z,11.73
2023-06-17T23:01:20.834Z,10.35
2023-06-17T23:03:48.927Z,12.73
2023-06-17T23:06:17.061Z,10.07
2023-06-17T23:08:45.148Z,12.73
2023-06-17T23:11:13.241Z,11.48
2023-06-17T23:13:41.274Z,11.68
2023-06-17T23:16:10.769Z,11.60
2023-06-17T23:18:38.858Z,12.65
2023-06-17T23:21:06.929Z,10.90
2023-06-17T23:23:37.853Z,11.18
2023-06-17T23:26:05.861Z,13.43
2023-06-17T23:28:34.495Z,11.38
2023-06-17T23:31:03.543Z,11.18
2023-06-17T23:33:33.679Z,10.30
2023-06-17T23:36:02.744Z,11.77
2023-06-17T23:38:33.468Z,15.68
2023-06-17T23:41:01.565Z,13.05
2023-06-17T23:43:29.661Z,13.40
2023-06-17T23:45:58.217Z,11.40
2023-06-17T23:48:26.646Z,11.70
2023-06-17T23:50:56.179Z,12.93
2023-06-17T23:53:24.341Z,12.75
2023-06-17T23:55:52.342Z,13.55
2023-06-17T23:58:20.408Z,11.93
